sensor_id;sensor_type;location;lat;lon;timestamp;P1;durP1;ratioP1;P2;durP2;ratioP2
23682;SDS011;24897;53.514;10.482;2023-04-19T00:01:01;33.47;;;30.37;;
23682;SDS011;24897;53.514;10.482;2023-04-19T00:03:45;35.73;;;32.13;;
23682;SDS011;24897;53.514;10.482;2023-04-19T00:06:29;34.70;;;31.23;;
23682;SDS011;24897;53.514;10.482;2023-04-19T00:09:14;36.17;;;32.30;;
23682;SDS011;24897;53.514;10.482;2023-04-19T00:11:58;36.43;;;32.83;;
23682;SDS011;24897;53.514;10.482;2023-04-19T00:14:42;36.40;;;32.57;;
23682;SDS011;24897;53.514;10.482;2023-04-19T00:17:26;35.37;;;31.83;;
23682;SDS011;24897;53.514;10.482;2023-04-19T00:20:10;36.00;;;32.30;;
23682;SDS011;24897;53.514;10.482;2023-04-19T00:22:55;36.03;;;32.63;;
23682;SDS011;24897;53.514;10.482;2023-04-19T00:25:41;36.20;;;32.60;;
23682;SDS011;24897;53.514;10.482;2023-04-19T00:28:25;37.37;;;33.63;;
23682;SDS011;24897;53.514;10.482;2023-04-19T00:31:09;38.93;;;35.07;;
23682;SDS011;24897;53.514;10.482;2023-04-19T00:33:55;39.33;;;35.40;;
23682;SDS011;24897;53.514;10.482;2023-04-19T00:36:39;38.07;;;34.37;;
23682;SDS011;24897;53.514;10.482;2023-04-19T00:39:23;39.57;;;35.67;;
23682;SDS011;24897;53.514;10.482;2023-04-19T00:42:08;38.13;;;34.23;;
23682;SDS011;24897;53.514;10.482;2023-04-19T00:44:52;37.10;;;33.10;;
23682;SDS011;24897;53.514;10.482;2023-04-19T00:47:36;37.33;;;33.73;;
23682;SDS011;24897;53.514;10.482;2023-04-19T00:50:21;36.93;;;33.33;;
23682;SDS011;24897;53.514;10.482;2023-04-19T00:53:06;36.60;;;33.10;;
23682;SDS011;24897;53.514;10.482;2023-04-19T00:55:50;36.10;;;32.57;;
23682;SDS011;24897;53.514;10.482;2023-04-19T00:58:36;36.17;;;32.77;;
23682;SDS011;24897;53.514;10.482;2023-04-19T01:01:21;36.77;;;33.17;;
23682;SDS011;24897;53.514;10.482;2023-04-19T01:04:06;37.77;;;33.97;;
23682;SDS011;24897;53.514;10.482;2023-04-19T01:06:51;36.33;;;32.70;;
23682;SDS011;24897;53.514;10.482;2023-04-19T01:09:39;36.53;;;32.93;;
23682;SDS011;24897;53.514;10.482;2023-04-19T01:12:24;34.80;;;31.50;;
23682;SDS011;24897;53.514;10.482;2023-04-19T01:15:08;34.73;;;31.53;;
23682;SDS011;24897;53.514;10.482;2023-04-19T01:17:53;35.00;;;31.63;;
23682;SDS011;24897;53.514;10.482;2023-04-19T01:20:38;34.47;;;31.27;;
23682;SDS011;24897;53.514;10.482;2023-04-19T01:23:23;33.00;;;29.80;;
23682;SDS011;24897;53.514;10.482;2023-04-19T01:26:08;32.47;;;29.57;;
23682;SDS011;24897;53.514;10.482;2023-04-19T01:28:51;31.70;;;28.80;;
23682;SDS011;24897;53.514;10.482;2023-04-19T01:31:36;31.60;;;28.37;;
23682;SDS011;24897;53.514;10.482;2023-04-19T01:34:20;31.73;;;28.80;;
23682;SDS011;24897;53.514;10.482;2023-04-19T01:37:05;31.93;;;29.13;;
23682;SDS011;24897;53.514;10.482;2023-04-19T01:39:53;32.83;;;29.73;;
23682;SDS011;24897;53.514;10.482;2023-04-19T01:42:37;33.37;;;29.67;;
23682;SDS011;24897;53.514;10.482;2023-04-19T01:45:21;33.13;;;30.23;;
23682;SDS011;24897;53.514;10.482;2023-04-19T01:48:05;31.63;;;28.90;;
23682;SDS011;24897;53.514;10.482;2023-04-19T01:50:49;33.50;;;30.30;;
23682;SDS011;24897;53.514;10.482;2023-04-19T01:53:33;35.40;;;32.20;;
23682;SDS011;24897;53.514;10.482;2023-04-19T01:56:18;34.43;;;31.27;;
23682;SDS011;24897;53.514;10.482;2023-04-19T01:59:03;34.37;;;31.00;;
23682;SDS011;24897;53.514;10.482;2023-04-19T02:01:47;35.97;;;32.33;;
23682;SDS011;24897;53.514;10.482;2023-04-19T02:04:32;36.07;;;32.73;;
23682;SDS011;24897;53.514;10.482;2023-04-19T02:07:17;35.80;;;32.50;;
23682;SDS011;24897;53.514;10.482;2023-04-19T02:10:01;36.90;;;33.60;;
23682;SDS011;24897;53.514;10.482;2023-04-19T02:12:46;37.13;;;33.63;;
23682;SDS011;24897;53.514;10.482;2023-04-19T02:15:30;37.73;;;34.00;;
23682;SDS011;24897;53.514;10.482;2023-04-19T02:18:14;38.00;;;34.40;;
23682;SDS011;24897;53.514;10.482;2023-04-19T02:21:00;39.33;;;35.73;;
23682;SDS011;24897;53.514;10.482;2023-04-19T02:23:44;38.80;;;35.00;;
23682;SDS011;24897;53.514;10.482;2023-04-19T02:26:29;39.93;;;36.00;;
23682;SDS011;24897;53.514;10.482;2023-04-19T02:29:13;40.93;;;37.07;;
23682;SDS011;24897;53.514;10.482;2023-04-19T02:31:59;40.40;;;36.60;;
23682;SDS011;24897;53.514;10.482;2023-04-19T02:34:43;40.27;;;36.33;;
23682;SDS011;24897;53.514;10.482;2023-04-19T02:37:28;40.87;;;36.70;;
23682;SDS011;24897;53.514;10.482;2023-04-19T02:40:12;42.47;;;38.30;;
23682;SDS011;24897;53.514;10.482;2023-04-19T02:42:56;40.87;;;36.83;;
23682;SDS011;24897;53.514;10.482;2023-04-19T02:45:40;44.00;;;39.80;;
23682;SDS011;24897;53.514;10.482;2023-04-19T02:48:27;42.37;;;38.03;;
23682;SDS011;24897;53.514;10.482;2023-04-19T02:51:14;41.50;;;37.40;;
23682;SDS011;24897;53.514;10.482;2023-04-19T02:54:00;42.13;;;37.93;;
23682;SDS011;24897;53.514;10.482;2023-04-19T02:56:44;42.60;;;38.70;;
23682;SDS011;24897;53.514;10.482;2023-04-19T02:59:28;42.07;;;37.83;;
23682;SDS011;24897;53.514;10.482;2023-04-19T03:02:15;42.70;;;38.50;;
23682;SDS011;24897;53.514;10.482;2023-04-19T03:04:59;42.70;;;38.50;;
23682;SDS011;24897;53.514;10.482;2023-04-19T03:07:44;43.83;;;39.63;;
23682;SDS011;24897;53.514;10.482;2023-04-19T03:10:28;42.60;;;38.10;;
23682;SDS011;24897;53.514;10.482;2023-04-19T03:13:12;43.70;;;39.53;;
23682;SDS011;24897;53.514;10.482;2023-04-19T03:15:56;44.13;;;39.83;;
23682;SDS011;24897;53.514;10.482;2023-04-19T03:18:40;44.27;;;39.87;;
23682;SDS011;24897;53.514;10.482;2023-04-19T03:21:24;45.40;;;40.90;;
23682;SDS011;24897;53.514;10.482;2023-04-19T03:24:10;42.20;;;38.00;;
23682;SDS011;24897;53.514;10.482;2023-04-19T03:26:55;42.87;;;38.63;;
23682;SDS011;24897;53.514;10.482;2023-04-19T03:29:39;41.77;;;37.67;;
23682;SDS011;24897;53.514;10.482;2023-04-19T03:32:23;41.47;;;37.17;;
23682;SDS011;24897;53.514;10.482;2023-04-19T03:35:08;42.10;;;37.90;;
23682;SDS011;24897;53.514;10.482;2023-04-19T03:37:52;41.37;;;37.20;;
23682;SDS011;24897;53.514;10.482;2023-04-19T03:40:36;42.87;;;38.57;;
23682;SDS011;24897;53.514;10.482;2023-04-19T03:43:21;41.80;;;37.60;;
23682;SDS011;24897;53.514;10.482;2023-04-19T03:46:07;42.13;;;37.97;;
23682;SDS011;24897;53.514;10.482;2023-04-19T03:48:52;42.37;;;38.03;;
23682;SDS011;24897;53.514;10.482;2023-04-19T03:51:37;42.10;;;37.87;;
23682;SDS011;24897;53.514;10.482;2023-04-19T03:54:21;43.83;;;39.33;;
23682;SDS011;24897;53.514;10.482;2023-04-19T03:57:05;43.33;;;39.13;;
23682;SDS011;24897;53.514;10.482;2023-04-19T03:59:49;44.73;;;40.23;;
23682;SDS011;24897;53.514;10.482;2023-04-19T04:02:37;42.13;;;37.73;;
23682;SDS011;24897;53.514;10.482;2023-04-19T04:05:22;42.57;;;38.13;;
23682;SDS011;24897;53.514;10.482;2023-04-19T04:08:06;42.23;;;37.83;;
23682;SDS011;24897;53.514;10.482;2023-04-19T04:10:50;42.60;;;38.03;;
23682;SDS011;24897;53.514;10.482;2023-04-19T04:13:35;41.63;;;37.43;;
23682;SDS011;24897;53.514;10.482;2023-04-19T04:16:20;41.90;;;37.33;;
23682;SDS011;24897;53.514;10.482;2023-04-19T04:19:04;40.33;;;36.17;;
23682;SDS011;24897;53.514;10.482;2023-04-19T04:21:48;40.47;;;36.47;;
23682;SDS011;24897;53.514;10.482;2023-04-19T04:24:39;39.77;;;35.70;;
23682;SDS011;24897;53.514;10.482;2023-04-19T04:27:26;39.10;;;35.27;;
23682;SDS011;24897;53.514;10.482;2023-04-19T04:30:10;38.43;;;34.63;;
23682;SDS011;24897;53.514;10.482;2023-04-19T04:32:55;38.17;;;34.37;;
23682;SDS011;24897;53.514;10.482;2023-04-19T04:35:40;38.77;;;34.67;;
23682;SDS011;24897;53.514;10.482;2023-04-19T04:38:26;37.47;;;33.80;;
23682;SDS011;24897;53.514;10.482;2023-04-19T04:41:10;36.13;;;32.73;;
23682;SDS011;24897;53.514;10.482;2023-04-19T04:43:54;37.10;;;33.60;;
23682;SDS011;24897;53.514;10.482;2023-04-19T04:46:40;36.40;;;32.87;;
23682;SDS011;24897;53.514;10.482;2023-04-19T04:49:28;33.93;;;30.70;;
23682;SDS011;24897;53.514;10.482;2023-04-19T04:52:13;33.93;;;30.63;;
23682;SDS011;24897;53.514;10.482;2023-04-19T04:54:58;30.17;;;27.37;;
23682;SDS011;24897;53.514;10.482;2023-04-19T04:57:42;23.37;;;21.37;;
23682;SDS011;24897;53.514;10.482;2023-04-19T05:00:26;19.50;;;17.90;;
23682;SDS011;24897;53.514;10.482;2023-04-19T05:03:10;18.50;;;16.77;;
23682;SDS011;24897;53.514;10.482;2023-04-19T05:05:54;18.30;;;16.70;;
23682;SDS011;24897;53.514;10.482;2023-04-19T05:08:39;18.60;;;17.10;;
23682;SDS011;24897;53.514;10.482;2023-04-19T05:11:23;18.00;;;16.50;;
23682;SDS011;24897;53.514;10.482;2023-04-19T05:14:07;17.80;;;16.33;;
23682;SDS011;24897;53.514;10.482;2023-04-19T05:16:51;17.63;;;16.23;;
23682;SDS011;24897;53.514;10.482;2023-04-19T05:19:35;17.87;;;16.27;;
23682;SDS011;24897;53.514;10.482;2023-04-19T05:22:19;17.43;;;15.93;;
23682;SDS011;24897;53.514;10.482;2023-04-19T05:25:04;17.90;;;16.07;;
23682;SDS011;24897;53.514;10.482;2023-04-19T05:27:49;17.30;;;15.70;;
23682;SDS011;24897;53.514;10.482;2023-04-19T05:30:33;17.57;;;16.07;;
23682;SDS011;24897;53.514;10.482;2023-04-19T05:33:17;18.43;;;16.97;;
23682;SDS011;24897;53.514;10.482;2023-04-19T05:36:01;20.13;;;18.43;;
23682;SDS011;24897;53.514;10.482;2023-04-19T05:38:46;20.47;;;18.67;;
23682;SDS011;24897;53.514;10.482;2023-04-19T05:41:30;21.30;;;19.40;;
23682;SDS011;24897;53.514;10.482;2023-04-19T05:44:14;22.70;;;20.70;;
23682;SDS011;24897;53.514;10.482;2023-04-19T05:46:58;22.70;;;20.63;;
23682;SDS011;24897;53.514;10.482;2023-04-19T05:49:43;23.00;;;20.97;;
23682;SDS011;24897;53.514;10.482;2023-04-19T05:52:27;22.27;;;20.40;;
23682;SDS011;24897;53.514;10.482;2023-04-19T05:55:11;22.13;;;20.17;;
23682;SDS011;24897;53.514;10.482;2023-04-19T05:57:59;22.10;;;19.97;;
23682;SDS011;24897;53.514;10.482;2023-04-19T06:00:43;21.07;;;19.33;;
23682;SDS011;24897;53.514;10.482;2023-04-19T06:03:28;21.30;;;19.50;;
23682;SDS011;24897;53.514;10.482;2023-04-19T06:06:12;21.27;;;19.17;;
23682;SDS011;24897;53.514;10.482;2023-04-19T06:08:56;20.93;;;19.03;;
23682;SDS011;24897;53.514;10.482;2023-04-19T06:11:40;20.57;;;18.87;;
23682;SDS011;24897;53.514;10.482;2023-04-19T06:14:26;20.53;;;18.83;;
23682;SDS011;24897;53.514;10.482;2023-04-19T06:17:11;21.43;;;19.40;;
23682;SDS011;24897;53.514;10.482;2023-04-19T06:19:56;21.23;;;19.27;;
23682;SDS011;24897;53.514;10.482;2023-04-19T06:22:41;20.83;;;19.03;;
23682;SDS011;24897;53.514;10.482;2023-04-19T06:25:27;19.97;;;18.33;;
23682;SDS011;24897;53.514;10.482;2023-04-19T06:28:11;20.90;;;19.00;;
23682;SDS011;24897;53.514;10.482;2023-04-19T06:30:55;19.47;;;17.87;;
23682;SDS011;24897;53.514;10.482;2023-04-19T06:33:39;19.67;;;18.07;;
23682;SDS011;24897;53.514;10.482;2023-04-19T06:36:24;18.70;;;17.20;;
23682;SDS011;24897;53.514;10.482;2023-04-19T06:39:08;18.27;;;16.80;;
23682;SDS011;24897;53.514;10.482;2023-04-19T06:41:52;17.60;;;16.10;;
23682;SDS011;24897;53.514;10.482;2023-04-19T06:44:36;16.70;;;15.37;;
23682;SDS011;24897;53.514;10.482;2023-04-19T06:47:20;16.93;;;15.60;;
23682;SDS011;24897;53.514;10.482;2023-04-19T06:50:05;16.70;;;15.20;;
23682;SDS011;24897;53.514;10.482;2023-04-19T06:52:50;16.53;;;15.23;;
23682;SDS011;24897;53.514;10.482;2023-04-19T06:55:34;15.97;;;14.77;;
23682;SDS011;24897;53.514;10.482;2023-04-19T06:58:18;15.90;;;14.70;;
23682;SDS011;24897;53.514;10.482;2023-04-19T07:01:03;16.30;;;14.80;;
23682;SDS011;24897;53.514;10.482;2023-04-19T07:03:47;15.63;;;14.43;;
23682;SDS011;24897;53.514;10.482;2023-04-19T07:06:31;15.30;;;14.03;;
23682;SDS011;24897;53.514;10.482;2023-04-19T07:09:16;15.27;;;14.17;;
23682;SDS011;24897;53.514;10.482;2023-04-19T07:12:00;16.03;;;14.33;;
23682;SDS011;24897;53.514;10.482;2023-04-19T07:14:44;15.37;;;14.07;;
23682;SDS011;24897;53.514;10.482;2023-04-19T07:17:29;15.20;;;14.00;;
23682;SDS011;24897;53.514;10.482;2023-04-19T07:20:13;15.10;;;14.00;;
23682;SDS011;24897;53.514;10.482;2023-04-19T07:22:57;15.07;;;13.97;;
23682;SDS011;24897;53.514;10.482;2023-04-19T07:25:42;15.20;;;13.90;;
23682;SDS011;24897;53.514;10.482;2023-04-19T07:28:29;17.83;;;15.07;;
23682;SDS011;24897;53.514;10.482;2023-04-19T07:31:17;15.83;;;14.63;;
23682;SDS011;24897;53.514;10.482;2023-04-19T07:34:03;15.67;;;14.50;;
23682;SDS011;24897;53.514;10.482;2023-04-19T07:36:48;15.43;;;14.23;;
23682;SDS011;24897;53.514;10.482;2023-04-19T07:39:32;15.50;;;14.40;;
23682;SDS011;24897;53.514;10.482;2023-04-19T07:42:16;15.00;;;13.80;;
23682;SDS011;24897;53.514;10.482;2023-04-19T07:45:01;16.43;;;15.33;;
23682;SDS011;24897;53.514;10.482;2023-04-19T07:47:45;16.23;;;15.13;;
23682;SDS011;24897;53.514;10.482;2023-04-19T07:50:30;17.00;;;15.80;;
23682;SDS011;24897;53.514;10.482;2023-04-19T07:53:14;14.80;;;13.77;;
23682;SDS011;24897;53.514;10.482;2023-04-19T07:55:59;15.90;;;14.60;;
23682;SDS011;24897;53.514;10.482;2023-04-19T07:58:43;15.37;;;14.20;;
23682;SDS011;24897;53.514;10.482;2023-04-19T08:01:28;15.37;;;14.17;;
23682;SDS011;24897;53.514;10.482;2023-04-19T08:04:13;16.10;;;14.70;;
23682;SDS011;24897;53.514;10.482;2023-04-19T08:06:57;15.20;;;14.07;;
23682;SDS011;24897;53.514;10.482;2023-04-19T08:09:41;15.40;;;14.27;;
23682;SDS011;24897;53.514;10.482;2023-04-19T08:12:25;15.50;;;14.30;;
23682;SDS011;24897;53.514;10.482;2023-04-19T08:15:09;15.30;;;14.20;;
23682;SDS011;24897;53.514;10.482;2023-04-19T08:17:54;15.37;;;13.90;;
23682;SDS011;24897;53.514;10.482;2023-04-19T08:20:38;15.50;;;14.30;;
23682;SDS011;24897;53.514;10.482;2023-04-19T08:23:25;15.17;;;13.97;;
23682;SDS011;24897;53.514;10.482;2023-04-19T08:26:09;15.07;;;13.93;;
23682;SDS011;24897;53.514;10.482;2023-04-19T08:28:53;15.60;;;14.30;;
23682;SDS011;24897;53.514;10.482;2023-04-19T08:31:38;15.00;;;13.80;;
23682;SDS011;24897;53.514;10.482;2023-04-19T08:34:22;15.10;;;14.00;;
23682;SDS011;24897;53.514;10.482;2023-04-19T08:37:06;15.00;;;13.80;;
23682;SDS011;24897;53.514;10.482;2023-04-19T08:39:50;15.20;;;13.90;;
23682;SDS011;24897;53.514;10.482;2023-04-19T08:42:34;14.70;;;13.60;;
23682;SDS011;24897;53.514;10.482;2023-04-19T08:45:19;15.37;;;14.10;;
23682;SDS011;24897;53.514;10.482;2023-04-19T08:48:07;15.30;;;14.20;;
23682;SDS011;24897;53.514;10.482;2023-04-19T08:50:55;15.07;;;13.93;;
23682;SDS011;24897;53.514;10.482;2023-04-19T08:53:41;15.60;;;14.20;;
23682;SDS011;24897;53.514;10.482;2023-04-19T08:56:27;16.17;;;14.70;;
23682;SDS011;24897;53.514;10.482;2023-04-19T08:59:11;15.40;;;14.20;;
23682;SDS011;24897;53.514;10.482;2023-04-19T09:01:59;15.30;;;14.00;;
23682;SDS011;24897;53.514;10.482;2023-04-19T09:04:44;15.40;;;14.17;;
23682;SDS011;24897;53.514;10.482;2023-04-19T09:07:28;15.50;;;14.20;;
23682;SDS011;24897;53.514;10.482;2023-04-19T09:10:13;15.10;;;13.70;;
23682;SDS011;24897;53.514;10.482;2023-04-19T09:13:03;15.37;;;14.10;;
23682;SDS011;24897;53.514;10.482;2023-04-19T09:15:48;15.40;;;14.30;;
23682;SDS011;24897;53.514;10.482;2023-04-19T09:18:34;15.10;;;14.00;;
23682;SDS011;24897;53.514;10.482;2023-04-19T09:21:37;15.23;;;14.00;;
23682;SDS011;24897;53.514;10.482;2023-04-19T09:24:38;15.17;;;13.90;;
23682;SDS011;24897;53.514;10.482;2023-04-19T09:30:11;15.40;;;14.17;;
23682;SDS011;24897;53.514;10.482;2023-04-19T09:32:55;15.20;;;13.97;;
23682;SDS011;24897;53.514;10.482;2023-04-19T09:35:43;17.57;;;14.20;;
23682;SDS011;24897;53.514;10.482;2023-04-19T09:38:50;15.20;;;13.80;;
23682;SDS011;24897;53.514;10.482;2023-04-19T09:41:34;15.00;;;13.90;;
23682;SDS011;24897;53.514;10.482;2023-04-19T09:44:20;15.63;;;14.33;;
23682;SDS011;24897;53.514;10.482;2023-04-19T09:47:20;15.53;;;14.20;;
23682;SDS011;24897;53.514;10.482;2023-04-19T09:50:09;15.63;;;14.30;;
23682;SDS011;24897;53.514;10.482;2023-04-19T09:52:54;15.00;;;13.90;;
23682;SDS011;24897;53.514;10.482;2023-04-19T09:55:40;15.37;;;14.07;;
23682;SDS011;24897;53.514;10.482;2023-04-19T09:58:25;15.37;;;14.00;;
23682;SDS011;24897;53.514;10.482;2023-04-19T10:01:10;16.00;;;14.60;;
23682;SDS011;24897;53.514;10.482;2023-04-19T10:03:55;15.03;;;13.93;;
23682;SDS011;24897;53.514;10.482;2023-04-19T10:06:41;15.73;;;14.40;;
23682;SDS011;24897;53.514;10.482;2023-04-19T10:09:26;16.23;;;14.90;;
23682;SDS011;24897;53.514;10.482;2023-04-19T10:12:11;15.70;;;14.30;;
23682;SDS011;24897;53.514;10.482;2023-04-19T10:14:58;15.67;;;14.37;;
23682;SDS011;24897;53.514;10.482;2023-04-19T10:17:43;15.63;;;14.33;;
23682;SDS011;24897;53.514;10.482;2023-04-19T10:20:50;15.97;;;14.67;;
23682;SDS011;24897;53.514;10.482;2023-04-19T10:23:35;16.23;;;14.87;;
23682;SDS011;24897;53.514;10.482;2023-04-19T10:26:20;16.87;;;15.20;;
23682;SDS011;24897;53.514;10.482;2023-04-19T10:29:04;16.10;;;14.90;;
23682;SDS011;24897;53.514;10.482;2023-04-19T10:31:49;15.80;;;14.40;;
23682;SDS011;24897;53.514;10.482;2023-04-19T10:34:38;15.70;;;14.30;;
23682;SDS011;24897;53.514;10.482;2023-04-19T10:37:24;15.33;;;13.90;;
23682;SDS011;24897;53.514;10.482;2023-04-19T10:40:09;15.53;;;14.07;;
23682;SDS011;24897;53.514;10.482;2023-04-19T10:46:07;35.50;;;33.13;;
23682;SDS011;24897;53.514;10.482;2023-04-19T10:49:01;34.30;;;32.10;;
23682;SDS011;24897;53.514;10.482;2023-04-19T10:51:49;33.23;;;30.70;;
23682;SDS011;24897;53.514;10.482;2023-04-19T10:54:37;33.23;;;30.93;;
23682;SDS011;24897;53.514;10.482;2023-04-19T10:57:21;31.73;;;29.43;;
23682;SDS011;24897;53.514;10.482;2023-04-19T11:00:18;31.20;;;29.10;;
23682;SDS011;24897;53.514;10.482;2023-04-19T11:06:26;32.70;;;30.30;;
23682;SDS011;24897;53.514;10.482;2023-04-19T11:09:11;31.60;;;29.40;;
23682;SDS011;24897;53.514;10.482;2023-04-19T11:12:07;34.13;;;31.83;;
23682;SDS011;24897;53.514;10.482;2023-04-19T11:14:55;32.13;;;30.03;;
23682;SDS011;24897;53.514;10.482;2023-04-19T11:17:42;32.10;;;30.00;;
23682;SDS011;24897;53.514;10.482;2023-04-19T11:20:26;33.50;;;31.10;;
23682;SDS011;24897;53.514;10.482;2023-04-19T11:23:17;32.60;;;30.40;;
23682;SDS011;24897;53.514;10.482;2023-04-19T11:26:01;31.37;;;29.27;;
23682;SDS011;24897;53.514;10.482;2023-04-19T11:28:45;33.73;;;31.03;;
23682;SDS011;24897;53.514;10.482;2023-04-19T11:31:32;32.13;;;29.77;;
23682;SDS011;24897;53.514;10.482;2023-04-19T11:34:16;32.90;;;30.43;;
23682;SDS011;24897;53.514;10.482;2023-04-19T11:37:05;34.10;;;31.60;;
23682;SDS011;24897;53.514;10.482;2023-04-19T11:39:50;31.13;;;29.03;;
23682;SDS011;24897;53.514;10.482;2023-04-19T11:42:34;31.57;;;29.57;;
23682;SDS011;24897;53.514;10.482;2023-04-19T11:45:28;32.00;;;29.80;;
23682;SDS011;24897;53.514;10.482;2023-04-19T11:48:18;32.87;;;30.07;;
23682;SDS011;24897;53.514;10.482;2023-04-19T11:51:03;32.93;;;30.50;;
23682;SDS011;24897;53.514;10.482;2023-04-19T11:53:47;31.73;;;29.37;;
23682;SDS011;24897;53.514;10.482;2023-04-19T11:56:35;31.70;;;29.57;;
23682;SDS011;24897;53.514;10.482;2023-04-19T11:59:19;31.87;;;29.63;;
23682;SDS011;24897;53.514;10.482;2023-04-19T12:02:10;31.27;;;29.17;;
23682;SDS011;24897;53.514;10.482;2023-04-19T12:04:55;32.80;;;30.47;;
23682;SDS011;24897;53.514;10.482;2023-04-19T12:10:55;32.43;;;29.87;;
23682;SDS011;24897;53.514;10.482;2023-04-19T12:13:40;30.67;;;28.40;;
23682;SDS011;24897;53.514;10.482;2023-04-19T12:16:27;29.40;;;27.50;;
23682;SDS011;24897;53.514;10.482;2023-04-19T12:19:12;28.03;;;26.10;;
23682;SDS011;24897;53.514;10.482;2023-04-19T12:22:06;27.30;;;25.40;;
23682;SDS011;24897;53.514;10.482;2023-04-19T12:24:51;25.63;;;23.83;;
23682;SDS011;24897;53.514;10.482;2023-04-19T12:27:36;16.93;;;15.57;;
23682;SDS011;24897;53.514;10.482;2023-04-19T12:30:23;16.70;;;15.30;;
23682;SDS011;24897;53.514;10.482;2023-04-19T12:33:08;16.30;;;14.73;;
23682;SDS011;24897;53.514;10.482;2023-04-19T12:35:52;16.50;;;14.90;;
23682;SDS011;24897;53.514;10.482;2023-04-19T12:38:36;16.13;;;14.80;;
23682;SDS011;24897;53.514;10.482;2023-04-19T12:41:20;16.00;;;14.77;;
23682;SDS011;24897;53.514;10.482;2023-04-19T12:44:05;16.47;;;14.97;;
23682;SDS011;24897;53.514;10.482;2023-04-19T12:46:49;16.43;;;15.13;;
23682;SDS011;24897;53.514;10.482;2023-04-19T12:49:33;16.30;;;15.00;;
23682;SDS011;24897;53.514;10.482;2023-04-19T12:52:17;17.00;;;15.47;;
23682;SDS011;24897;53.514;10.482;2023-04-19T12:55:02;16.90;;;15.23;;
23682;SDS011;24897;53.514;10.482;2023-04-19T12:57:47;16.00;;;14.50;;
23682;SDS011;24897;53.514;10.482;2023-04-19T13:00:31;16.50;;;15.20;;
23682;SDS011;24897;53.514;10.482;2023-04-19T13:03:16;16.50;;;14.87;;
23682;SDS011;24897;53.514;10.482;2023-04-19T13:06:04;17.77;;;15.20;;
23682;SDS011;24897;53.514;10.482;2023-04-19T13:08:49;16.73;;;15.13;;
23682;SDS011;24897;53.514;10.482;2023-04-19T13:11:33;16.97;;;15.40;;
23682;SDS011;24897;53.514;10.482;2023-04-19T13:14:17;16.03;;;14.60;;
23682;SDS011;24897;53.514;10.482;2023-04-19T13:17:01;16.13;;;14.70;;
23682;SDS011;24897;53.514;10.482;2023-04-19T13:19:45;16.77;;;15.23;;
23682;SDS011;24897;53.514;10.482;2023-04-19T13:22:30;16.43;;;15.03;;
23682;SDS011;24897;53.514;10.482;2023-04-19T13:25:14;17.03;;;15.30;;
23682;SDS011;24897;53.514;10.482;2023-04-19T13:27:58;16.80;;;15.20;;
23682;SDS011;24897;53.514;10.482;2023-04-19T13:30:42;17.07;;;15.47;;
23682;SDS011;24897;53.514;10.482;2023-04-19T13:33:26;16.97;;;15.50;;
23682;SDS011;24897;53.514;10.482;2023-04-19T13:36:11;17.17;;;15.07;;
23682;SDS011;24897;53.514;10.482;2023-04-19T13:38:55;16.37;;;14.97;;
23682;SDS011;24897;53.514;10.482;2023-04-19T13:41:40;16.77;;;15.00;;
23682;SDS011;24897;53.514;10.482;2023-04-19T13:44:24;17.27;;;15.70;;
23682;SDS011;24897;53.514;10.482;2023-04-19T13:47:08;16.77;;;15.30;;
23682;SDS011;24897;53.514;10.482;2023-04-19T13:49:52;17.03;;;15.43;;
23682;SDS011;24897;53.514;10.482;2023-04-19T13:52:36;16.93;;;15.33;;
23682;SDS011;24897;53.514;10.482;2023-04-19T13:55:25;16.80;;;15.13;;
23682;SDS011;24897;53.514;10.482;2023-04-19T13:58:09;17.13;;;15.63;;
23682;SDS011;24897;53.514;10.482;2023-04-19T14:00:56;16.83;;;15.33;;
23682;SDS011;24897;53.514;10.482;2023-04-19T14:03:40;17.80;;;15.90;;
23682;SDS011;24897;53.514;10.482;2023-04-19T14:06:25;16.50;;;15.00;;
23682;SDS011;24897;53.514;10.482;2023-04-19T14:09:09;16.40;;;14.93;;
23682;SDS011;24897;53.514;10.482;2023-04-19T14:11:53;16.63;;;15.10;;
23682;SDS011;24897;53.514;10.482;2023-04-19T14:14:39;16.50;;;15.10;;
23682;SDS011;24897;53.514;10.482;2023-04-19T14:17:24;15.97;;;14.67;;
23682;SDS011;24897;53.514;10.482;2023-04-19T14:20:09;17.07;;;15.30;;
23682;SDS011;24897;53.514;10.482;2023-04-19T14:22:53;16.50;;;15.20;;
23682;SDS011;24897;53.514;10.482;2023-04-19T14:25:43;16.57;;;15.07;;
23682;SDS011;24897;53.514;10.482;2023-04-19T14:28:27;17.10;;;15.67;;
23682;SDS011;24897;53.514;10.482;2023-04-19T14:31:11;16.20;;;14.80;;
23682;SDS011;24897;53.514;10.482;2023-04-19T14:33:55;16.37;;;14.97;;
23682;SDS011;24897;53.514;10.482;2023-04-19T14:36:39;16.57;;;14.60;;
23682;SDS011;24897;53.514;10.482;2023-04-19T14:39:24;15.83;;;14.43;;
23682;SDS011;24897;53.514;10.482;2023-04-19T14:42:08;15.83;;;14.53;;
23682;SDS011;24897;53.514;10.482;2023-04-19T14:44:52;15.33;;;14.10;;
23682;SDS011;24897;53.514;10.482;2023-04-19T14:47:36;16.20;;;14.80;;
23682;SDS011;24897;53.514;10.482;2023-04-19T14:50:20;15.83;;;14.43;;
23682;SDS011;24897;53.514;10.482;2023-04-19T14:53:04;16.13;;;14.70;;
23682;SDS011;24897;53.514;10.482;2023-04-19T14:55:51;15.60;;;14.40;;
23682;SDS011;24897;53.514;10.482;2023-04-19T14:58:35;16.00;;;14.60;;
23682;SDS011;24897;53.514;10.482;2023-04-19T15:01:19;16.17;;;14.77;;
23682;SDS011;24897;53.514;10.482;2023-04-19T15:04:05;16.13;;;14.57;;
23682;SDS011;24897;53.514;10.482;2023-04-19T15:06:50;16.00;;;14.40;;
23682;SDS011;24897;53.514;10.482;2023-04-19T15:09:35;15.43;;;14.13;;
23682;SDS011;24897;53.514;10.482;2023-04-19T15:12:19;15.07;;;13.87;;
23682;SDS011;24897;53.514;10.482;2023-04-19T15:15:04;15.10;;;13.67;;
23682;SDS011;24897;53.514;10.482;2023-04-19T15:17:49;15.80;;;14.50;;
23682;SDS011;24897;53.514;10.482;2023-04-19T15:20:34;17.73;;;16.30;;
23682;SDS011;24897;53.514;10.482;2023-04-19T15:23:22;17.80;;;16.40;;
23682;SDS011;24897;53.514;10.482;2023-04-19T15:26:06;17.43;;;16.13;;
23682;SDS011;24897;53.514;10.482;2023-04-19T15:28:50;17.87;;;16.27;;
23682;SDS011;24897;53.514;10.482;2023-04-19T15:31:37;17.63;;;15.97;;
23682;SDS011;24897;53.514;10.482;2023-04-19T15:34:21;18.90;;;17.20;;
23682;SDS011;24897;53.514;10.482;2023-04-19T15:37:05;18.17;;;16.73;;
23682;SDS011;24897;53.514;10.482;2023-04-19T15:39:50;17.23;;;15.70;;
23682;SDS011;24897;53.514;10.482;2023-04-19T15:42:34;17.47;;;15.73;;
23682;SDS011;24897;53.514;10.482;2023-04-19T15:45:18;17.67;;;16.10;;
23682;SDS011;24897;53.514;10.482;2023-04-19T15:48:03;17.30;;;15.90;;
23682;SDS011;24897;53.514;10.482;2023-04-19T15:50:47;17.37;;;15.80;;
23682;SDS011;24897;53.514;10.482;2023-04-19T15:53:31;17.33;;;16.07;;
23682;SDS011;24897;53.514;10.482;2023-04-19T15:56:16;18.23;;;16.63;;
23682;SDS011;24897;53.514;10.482;2023-04-19T15:59:00;17.60;;;16.20;;
23682;SDS011;24897;53.514;10.482;2023-04-19T16:01:44;17.77;;;16.23;;
23682;SDS011;24897;53.514;10.482;2023-04-19T16:04:28;18.00;;;16.30;;